createdAt,value
2022-08-18T00:00:20.019Z,23.90
2022-08-18T00:02:30.074Z,23.90
2022-08-18T00:04:43.396Z,23.90
2022-08-18T00:06:51.959Z,24.00
2022-08-18T00:08:54.732Z,23.90
2022-08-18T00:10:58.537Z,24.00
2022-08-18T00:13:01.530Z,24.00
2022-08-18T00:15:06.032Z,24.00
2022-08-18T00:17:08.978Z,24.00
2022-08-18T00:19:13.157Z,24.00
2022-08-18T00:21:15.901Z,23.90
2022-08-18T00:23:19.152Z,23.90
2022-08-18T00:25:22.322Z,24.00
2022-08-18T00:27:28.777Z,24.00
2022-08-18T00:29:31.794Z,24.10
2022-08-18T00:31:34.535Z,24.10
2022-08-18T00:33:37.322Z,24.10
2022-08-18T00:35:41.474Z,23.90
2022-08-18T00:37:44.544Z,23.70
2022-08-18T00:39:48.010Z,23.70
2022-08-18T00:41:51.078Z,23.70
2022-08-18T00:43:56.276Z,23.60
2022-08-18T00:45:59.316Z,23.70
2022-08-18T00:48:02.217Z,23.80
2022-08-18T00:50:06.306Z,23.90
2022-08-18T00:52:18.492Z,23.90
2022-08-18T00:54:24.859Z,24.00
2022-08-18T00:56:33.704Z,24.00
2022-08-18T00:58:39.738Z,23.90
2022-08-18T01:00:42.630Z,23.90
2022-08-18T01:02:52.607Z,23.70
2022-08-18T01:05:00.391Z,23.50
2022-08-18T01:07:09.317Z,23.40
2022-08-18T01:09:13.547Z,23.30
2022-08-18T01:11:16.403Z,23.30
2022-08-18T01:13:19.317Z,23.30
2022-08-18T01:15:28.685Z,23.40
2022-08-18T01:17:58.720Z,23.40
2022-08-18T01:20:31.197Z,23.40
2022-08-18T01:22:44.243Z,23.30
2022-08-18T01:25:04.974Z,23.10
2022-08-18T01:27:07.745Z,23.00
2022-08-18T01:29:11.834Z,22.90
2022-08-18T01:31:37.818Z,22.90
2022-08-18T01:33:44.651Z,22.80
2022-08-18T01:35:50.157Z,22.60
2022-08-18T01:37:53.858Z,22.50
2022-08-18T01:41:01.001Z,22.60
2022-08-18T01:42:20.644Z,22.70
2022-08-18T01:44:23.451Z,22.70
2022-08-18T01:46:27.051Z,22.70
2022-08-18T01:48:33.007Z,22.80
2022-08-18T01:50:39.724Z,22.80
2022-08-18T01:52:42.513Z,22.80
2022-08-18T01:54:45.282Z,22.80
2022-08-18T01:56:49.471Z,22.70
2022-08-18T01:58:52.221Z,22.70
2022-08-18T02:01:01.780Z,22.70
2022-08-18T02:03:08.295Z,22.70
2022-08-18T02:05:13.713Z,22.60
2022-08-18T02:07:18.633Z,22.50
2022-08-18T02:09:23.680Z,22.70
2022-08-18T02:11:27.143Z,22.70
2022-08-18T02:13:31.732Z,22.70
2022-08-18T02:15:34.614Z,22.80
2022-08-18T02:17:38.790Z,22.90
2022-08-18T02:19:44.865Z,22.80
2022-08-18T02:21:47.652Z,22.90
2022-08-18T02:23:53.015Z,22.80
2022-08-18T02:25:56.747Z,22.70
2022-08-18T02:27:59.478Z,22.70
2022-08-18T02:30:06.546Z,22.80
2022-08-18T02:32:09.662Z,22.70
2022-08-18T02:34:12.390Z,22.60
2022-08-18T02:36:15.301Z,22.40
2022-08-18T02:38:18.014Z,22.40
2022-08-18T02:40:21.115Z,22.40
2022-08-18T02:42:23.915Z,22.40
2022-08-18T02:44:26.696Z,22.40
2022-08-18T02:46:31.236Z,22.40
2022-08-18T02:48:35.278Z,22.50
2022-08-18T02:50:45.764Z,22.40
2022-08-18T02:52:48.619Z,22.30
2022-08-18T02:54:52.093Z,22.30
2022-08-18T02:56:57.109Z,22.30
2022-08-18T02:59:01.621Z,22.20
2022-08-18T03:01:04.459Z,22.20
2022-08-18T03:03:08.661Z,22.30
2022-08-18T03:05:14.675Z,22.50
2022-08-18T03:07:17.955Z,22.50
2022-08-18T03:09:21.700Z,22.50
2022-08-18T03:11:26.315Z,22.40
2022-08-18T03:13:30.301Z,22.30
2022-08-18T03:15:33.675Z,22.30
2022-08-18T03:17:37.855Z,22.10
2022-08-18T03:19:43.913Z,22.00
2022-08-18T03:21:49.707Z,22.10
2022-08-18T03:24:00.695Z,22.40
2022-08-18T03:26:04.447Z,22.50
2022-08-18T03:28:07.627Z,22.60
2022-08-18T03:30:11.677Z,22.60
2022-08-18T03:32:14.788Z,22.60
2022-08-18T03:34:20.461Z,22.60
2022-08-18T03:36:27.864Z,22.30
2022-08-18T03:38:30.636Z,22.10
2022-08-18T03:40:33.427Z,22.10
2022-08-18T03:42:36.166Z,22.10
2022-08-18T03:44:38.989Z,22.10
2022-08-18T03:46:42.866Z,21.90
2022-08-18T03:48:47.270Z,21.80
2022-08-18T03:50:49.994Z,22.00
2022-08-18T03:52:54.331Z,22.00
2022-08-18T03:54:57.077Z,22.00
2022-08-18T03:57:00.359Z,22.10
2022-08-18T03:59:07.812Z,22.10
2022-08-18T04:01:11.702Z,22.20
2022-08-18T04:03:14.504Z,22.00
2022-08-18T04:05:17.333Z,22.10
2022-08-18T04:07:20.070Z,22.30
2022-08-18T04:09:27.651Z,22.30
2022-08-18T04:11:35.697Z,22.10
2022-08-18T04:13:40.205Z,22.10
2022-08-18T04:15:42.924Z,22.20
2022-08-18T04:17:55.957Z,22.20
2022-08-18T04:20:06.674Z,22.00
2022-08-18T04:22:17.478Z,22.10
2022-08-18T04:24:21.575Z,22.00
2022-08-18T04:26:25.842Z,21.70
2022-08-18T04:28:29.591Z,21.70
2022-08-18T04:30:32.393Z,21.80
2022-08-18T04:32:35.185Z,21.90
2022-08-18T04:34:37.932Z,22.10
2022-08-18T04:36:42.067Z,22.00
2022-08-18T04:38:45.475Z,22.10
2022-08-18T04:40:48.496Z,22.20
2022-08-18T04:42:52.602Z,22.10
2022-08-18T04:44:55.360Z,22.30
2022-08-18T04:46:58.103Z,22.40
2022-08-18T04:49:00.851Z,22.50
2022-08-18T04:51:08.623Z,22.60
2022-08-18T04:53:29.125Z,22.50
2022-08-18T04:55:31.872Z,22.60
2022-08-18T04:57:35.128Z,22.70
2022-08-18T04:59:41.347Z,22.50
2022-08-18T05:01:46.352Z,22.50
2022-08-18T05:03:50.578Z,22.50
2022-08-18T05:05:53.636Z,22.30
2022-08-18T05:07:56.423Z,22.20
2022-08-18T05:09:59.660Z,22.40
2022-08-18T05:12:02.929Z,22.40
2022-08-18T05:14:07.431Z,22.50
2022-08-18T05:16:16.869Z,22.70
2022-08-18T05:18:24.310Z,22.80
2022-08-18T05:20:29.490Z,22.80
2022-08-18T05:22:38.145Z,22.80
2022-08-18T05:24:41.126Z,22.90
2022-08-18T05:26:44.512Z,23.00
2022-08-18T05:28:47.870Z,23.00
2022-08-18T05:30:50.743Z,23.10
2022-08-18T05:32:55.518Z,23.20
2022-08-18T05:34:59.697Z,23.20
2022-08-18T05:37:14.595Z,23.10
2022-08-18T05:39:23.423Z,23.10
2022-08-18T05:41:29.932Z,23.10
2022-08-18T05:43:33.236Z,23.20
2022-08-18T05:45:36.674Z,23.20
2022-08-18T05:47:40.115Z,23.20
2022-08-18T05:49:48.066Z,23.30
2022-08-18T05:51:53.097Z,23.40
2022-08-18T05:54:13.764Z,23.50
2022-08-18T05:56:41.730Z,23.50
2022-08-18T05:58:50.413Z,23.50
2022-08-18T06:00:59.709Z,23.50
2022-08-18T06:03:09.555Z,23.40
2022-08-18T06:05:17.133Z,23.50
2022-08-18T06:07:33.587Z,23.50
2022-08-18T06:09:43.456Z,23.70
2022-08-18T06:11:47.205Z,23.70
2022-08-18T06:13:54.245Z,23.80
2022-08-18T06:16:09.889Z,23.90
2022-08-18T06:18:38.372Z,23.90
2022-08-18T06:20:56.722Z,24.00
2022-08-18T06:23:12.001Z,23.90
2022-08-18T06:25:19.149Z,23.90
2022-08-18T06:27:29.761Z,23.90
2022-08-18T06:29:52.634Z,23.80
2022-08-18T06:32:03.491Z,23.80
2022-08-18T06:34:16.341Z,23.80
2022-08-18T06:36:33.086Z,23.90
2022-08-18T06:38:45.992Z,24.00
2022-08-18T06:40:49.117Z,24.00
2022-08-18T06:42:51.842Z,23.90
2022-08-18T06:44:59.329Z,24.00
2022-08-18T06:47:10.108Z,24.10
2022-08-18T06:49:22.567Z,24.30
2022-08-18T06:51:29.280Z,24.50
2022-08-18T06:53:53.106Z,24.50
2022-08-18T06:55:56.244Z,24.40
2022-08-18T06:58:00.737Z,24.30
2022-08-18T07:00:11.294Z,24.20
2022-08-18T07:02:23.529Z,24.30
2022-08-18T07:04:44.045Z,24.30
2022-08-18T07:06:48.112Z,24.50
2022-08-18T07:08:52.422Z,24.50
2022-08-18T07:10:55.217Z,24.50
2022-08-18T07:13:09.032Z,24.60
2022-08-18T07:15:14.428Z,24.50
2022-08-18T07:17:43.699Z,24.40
2022-08-18T07:19:56.703Z,24.50
2022-08-18T07:22:06.580Z,24.50
2022-08-18T07:24:24.698Z,24.60
2022-08-18T07:26:27.800Z,24.80
2022-08-18T07:28:36.694Z,24.60
2022-08-18T07:30:47.062Z,24.40
2022-08-18T07:33:03.231Z,24.50
2022-08-18T07:35:09.544Z,24.40
2022-08-18T07:37:18.023Z,24.50
2022-08-18T07:39:26.984Z,24.50
2022-08-18T07:41:36.435Z,24.50
2022-08-18T07:43:44.426Z,24.60
2022-08-18T07:45:48.466Z,24.70
2022-08-18T07:47:55.878Z,24.80
2022-08-18T07:50:23.072Z,24.80
2022-08-18T07:52:36.555Z,25.00
2022-08-18T07:55:00.150Z,25.10
2022-08-18T07:57:09.950Z,25.10
2022-08-18T07:59:20.009Z,25.10
2022-08-18T08:01:30.188Z,24.90
2022-08-18T08:03:51.695Z,25.10
2022-08-18T08:06:05.086Z,25.20
2022-08-18T08:08:19.734Z,25.20
2022-08-18T08:10:36.888Z,25.20
2022-08-18T08:12:45.953Z,25.20
2022-08-18T08:14:52.046Z,25.40
2022-08-18T08:17:04.803Z,25.40
2022-08-18T08:19:42.411Z,25.60
2022-08-18T08:21:52.845Z,25.40
2022-08-18T08:24:08.259Z,25.10
2022-08-18T08:26:25.402Z,25.40
2022-08-18T08:28:38.294Z,25.40
2022-08-18T08:30:50.063Z,25.40
2022-08-18T08:33:04.370Z,25.50
2022-08-18T08:35:47.135Z,25.40
2022-08-18T08:37:41.804Z,25.20
2022-08-18T08:39:50.911Z,25.20
2022-08-18T08:42:29.334Z,25.10
2022-08-18T08:44:27.188Z,25.10
2022-08-18T08:46:35.636Z,25.10
2022-08-18T08:48:44.354Z,25.20
2022-08-18T08:50:54.358Z,25.40
2022-08-18T08:53:01.875Z,25.60
2022-08-18T08:55:13.662Z,25.80
2022-08-18T08:57:18.951Z,25.80
2022-08-18T08:59:25.068Z,25.90
2022-08-18T09:01:35.207Z,25.90
2022-08-18T09:03:46.258Z,25.70
2022-08-18T09:05:58.259Z,25.70
2022-08-18T09:08:33.944Z,25.60
2022-08-18T09:11:11.718Z,25.50
2022-08-18T09:13:44.232Z,25.50
2022-08-18T09:16:12.243Z,25.50
2022-08-18T09:18:36.364Z,25.60
2022-08-18T09:20:52.637Z,25.70
2022-08-18T09:23:03.641Z,25.80
2022-08-18T09:25:12.926Z,25.70
2022-08-18T09:27:37.000Z,25.60
2022-08-18T09:29:51.839Z,25.80
2022-08-18T09:32:32.558Z,25.60
2022-08-18T09:34:49.420Z,25.60
2022-08-18T09:37:04.016Z,25.50
2022-08-18T09:39:38.876Z,25.50
2022-08-18T09:41:51.840Z,25.40
2022-08-18T09:44:17.866Z,25.60
2022-08-18T09:46:51.837Z,25.60
2022-08-18T09:49:32.535Z,25.80
2022-08-18T09:51:42.182Z,25.80
2022-08-18T09:54:14.690Z,25.90
2022-08-18T09:56:56.713Z,26.00
2022-08-18T09:59:02.955Z,26.10
2022-08-18T10:01:34.158Z,26.10
2022-08-18T10:03:38.963Z,25.90
2022-08-18T10:05:56.909Z,26.00
2022-08-18T10:08:31.240Z,26.00
2022-08-18T10:10:59.090Z,26.10
2022-08-18T10:13:14.966Z,25.90
2022-08-18T10:15:33.776Z,25.60
2022-08-18T10:17:49.992Z,25.60
2022-08-18T10:19:58.853Z,25.70
2022-08-18T10:22:08.045Z,25.80
2022-08-18T10:24:36.953Z,25.50
2022-08-18T10:27:09.716Z,25.40
2022-08-18T10:29:51.035Z,25.10
2022-08-18T10:32:23.570Z,25.10
2022-08-18T10:34:40.649Z,25.00
2022-08-18T10:36:58.972Z,24.80
2022-08-18T10:39:06.852Z,24.80
2022-08-18T10:41:21.109Z,24.50
2022-08-18T10:43:55.128Z,24.50
2022-08-18T10:46:24.359Z,24.20
2022-08-18T10:48:24.386Z,24.10
2022-08-18T10:50:31.739Z,24.00
2022-08-18T10:53:17.137Z,24.10
2022-08-18T10:55:48.187Z,24.50
2022-08-18T10:58:30.382Z,24.40
2022-08-18T11:00:48.323Z,24.50
2022-08-18T11:05:31.846Z,24.70
2022-08-18T11:07:39.575Z,24.60
2022-08-18T11:09:50.623Z,24.60
2022-08-18T11:14:31.510Z,24.50
2022-08-18T11:16:55.712Z,24.50
2022-08-18T11:19:06.920Z,24.80
2022-08-18T11:21:42.185Z,24.80
2022-08-18T11:23:45.620Z,25.00
2022-08-18T11:25:49.607Z,25.10
2022-08-18T11:27:53.059Z,25.20
2022-08-18T11:29:59.858Z,25.30
2022-08-18T11:32:10.985Z,25.30
2022-08-18T11:34:18.519Z,25.20
2022-08-18T11:36:31.552Z,25.10
2022-08-18T11:38:39.468Z,25.20
2022-08-18T11:41:10.820Z,25.30
2022-08-18T11:43:15.354Z,25.10
2022-08-18T11:45:24.563Z,25.00
2022-08-18T11:47:30.045Z,25.20
2022-08-18T11:49:34.486Z,25.00
2022-08-18T11:51:40.586Z,24.60
2022-08-18T11:53:59.312Z,24.60
2022-08-18T11:56:13.441Z,24.50
2022-08-18T11:58:41.891Z,24.50
2022-08-18T12:01:01.585Z,24.40
2022-08-18T12:03:09.130Z,24.40
2022-08-18T12:05:12.221Z,24.40
2022-08-18T12:07:20.612Z,24.50
2022-08-18T12:10:16.010Z,24.90
2022-08-18T12:12:14.544Z,24.90
2022-08-18T12:14:32.521Z,24.80
2022-08-18T12:16:41.403Z,24.40
2022-08-18T12:18:49.390Z,24.20
2022-08-18T12:20:56.612Z,24.40
2022-08-18T12:23:00.285Z,24.60
2022-08-18T12:27:32.323Z,25.00
2022-08-18T12:31:58.034Z,25.20
2022-08-18T12:34:01.454Z,25.30
2022-08-18T12:36:05.315Z,25.40
2022-08-18T12:38:13.192Z,25.40
2022-08-18T12:40:20.514Z,25.30
2022-08-18T12:42:23.459Z,25.40
2022-08-18T12:44:27.128Z,25.60
2022-08-18T12:46:31.477Z,25.70
2022-08-18T12:48:34.732Z,25.90
2022-08-18T12:50:49.805Z,26.00
2022-08-18T12:53:00.767Z,25.90
2022-08-18T12:55:08.609Z,25.80
2022-08-18T12:57:33.349Z,25.70
2022-08-18T12:59:52.063Z,25.80
2022-08-18T13:01:58.444Z,25.80
2022-08-18T13:04:13.149Z,25.90
2022-08-18T13:06:16.891Z,25.90
2022-08-18T13:08:30.188Z,26.00
2022-08-18T13:10:45.667Z,26.20
2022-08-18T13:12:52.958Z,26.30
2022-08-18T13:14:58.236Z,26.30
2022-08-18T13:17:01.112Z,26.40
2022-08-18T13:19:06.097Z,26.40
2022-08-18T13:21:10.144Z,26.30
2022-08-18T13:23:13.080Z,26.00
2022-08-18T13:25:32.509Z,26.10
2022-08-18T13:27:43.609Z,25.80
2022-08-18T13:29:50.981Z,25.90
2022-08-18T13:31:58.075Z,26.20
2022-08-18T13:34:03.984Z,26.10
2022-08-18T13:36:07.877Z,26.10
2022-08-18T13:38:14.573Z,26.00
2022-08-18T13:40:23.915Z,26.20
2022-08-18T13:42:50.405Z,26.10
2022-08-18T13:44:57.054Z,25.80
2022-08-18T13:46:59.915Z,25.80
2022-08-18T13:49:04.171Z,25.70
2022-08-18T13:51:09.807Z,25.80
2022-08-18T13:53:19.382Z,25.80
2022-08-18T13:55:29.011Z,25.80
2022-08-18T13:57:32.380Z,25.80
2022-08-18T13:59:35.161Z,25.80
2022-08-18T14:01:44.973Z,25.90
2022-08-18T14:03:56.072Z,25.80
2022-08-18T14:06:01.618Z,25.80
2022-08-18T14:08:06.079Z,25.80
2022-08-18T14:10:10.775Z,25.70
2022-08-18T14:12:23.131Z,25.80
2022-08-18T14:14:27.806Z,25.80
2022-08-18T14:16:31.196Z,25.80
2022-08-18T14:18:35.360Z,25.80
2022-08-18T14:20:55.960Z,25.50
2022-08-18T14:23:21.465Z,25.50
2022-08-18T14:25:56.571Z,25.70
2022-08-18T14:28:03.831Z,25.80
2022-08-18T14:30:10.460Z,25.90
2022-08-18T14:32:17.826Z,26.00
2022-08-18T14:34:28.540Z,25.90
2022-08-18T14:36:38.654Z,26.20
2022-08-18T14:38:43.430Z,26.20
2022-08-18T14:40:48.705Z,26.00
2022-08-18T14:42:54.099Z,26.00
2022-08-18T14:45:03.747Z,25.90
2022-08-18T14:47:24.470Z,26.00
2022-08-18T14:49:31.354Z,26.00
2022-08-18T14:51:34.116Z,25.90
2022-08-18T14:53:37.236Z,25.80
2022-08-18T14:55:40.414Z,25.90
2022-08-18T14:57:43.294Z,25.70
2022-08-18T14:59:48.040Z,25.70
2022-08-18T15:01:53.620Z,25.70
2022-08-18T15:03:56.565Z,25.70
2022-08-18T15:06:04.894Z,25.80
2022-08-18T15:08:08.982Z,25.70
2022-08-18T15:10:16.654Z,25.70
2022-08-18T15:12:24.545Z,25.50
2022-08-18T15:14:33.166Z,25.40
2022-08-18T15:16:38.533Z,25.50
2022-08-18T15:18:43.548Z,25.70
2022-08-18T15:21:04.264Z,26.10
2022-08-18T15:23:32.354Z,26.10
2022-08-18T15:25:44.743Z,26.30
2022-08-18T15:27:47.662Z,26.30
2022-08-18T15:29:55.781Z,26.20
2022-08-18T15:32:02.265Z,26.30
2022-08-18T15:34:09.889Z,26.30
2022-08-18T15:36:21.396Z,26.30
2022-08-18T15:38:33.134Z,26.40
2022-08-18T15:40:41.379Z,26.30
2022-08-18T15:42:50.019Z,26.30
2022-08-18T15:44:53.718Z,26.10
2022-08-18T15:46:56.868Z,26.10
2022-08-18T15:48:59.629Z,25.90
2022-08-18T15:51:11.637Z,25.90
2022-08-18T15:53:16.609Z,26.00
2022-08-18T15:55:23.032Z,26.10
2022-08-18T15:57:39.031Z,25.90
2022-08-18T15:59:43.024Z,26.00
2022-08-18T16:01:49.590Z,25.80
2022-08-18T16:03:55.024Z,25.70
2022-08-18T16:05:57.815Z,25.70
2022-08-18T16:08:01.202Z,25.80
2022-08-18T16:10:05.721Z,25.70
2022-08-18T16:12:11.123Z,25.80
2022-08-18T16:14:13.963Z,25.90
2022-08-18T16:16:28.841Z,25.90
2022-08-18T16:18:36.556Z,25.80
2022-08-18T16:20:39.626Z,25.80
2022-08-18T16:22:43.503Z,25.80
2022-08-18T16:24:46.333Z,26.00
2022-08-18T16:26:57.788Z,26.10
2022-08-18T16:29:02.162Z,26.00
2022-08-18T16:31:06.098Z,26.00
2022-08-18T16:33:09.565Z,25.80
2022-08-18T16:35:12.459Z,25.70
2022-08-18T16:39:23.763Z,25.80
2022-08-18T16:41:27.071Z,25.90
2022-08-18T16:43:30.195Z,26.10
2022-08-18T16:45:36.124Z,26.10
2022-08-18T16:47:40.461Z,26.00
2022-08-18T16:49:45.365Z,25.90
2022-08-18T16:51:48.256Z,26.00
2022-08-18T16:53:53.426Z,26.10
2022-08-18T16:55:56.472Z,26.10
2022-08-18T16:58:17.076Z,26.00
2022-08-18T17:00:37.760Z,26.00
2022-08-18T17:02:59.388Z,25.90
2022-08-18T17:05:03.137Z,25.70
2022-08-18T17:07:07.118Z,25.70
2022-08-18T17:09:12.668Z,25.70
2022-08-18T17:11:18.329Z,25.70
2022-08-18T17:13:21.201Z,25.60
2022-08-18T17:15:23.974Z,25.50
2022-08-18T17:17:26.849Z,25.30
2022-08-18T17:19:34.264Z,25.40
2022-08-18T17:21:37.622Z,25.50
2022-08-18T17:23:40.667Z,25.30
2022-08-18T17:25:44.195Z,25.40
2022-08-18T17:27:50.302Z,25.40
2022-08-18T17:30:04.102Z,25.50
2022-08-18T17:32:11.556Z,25.70
2022-08-18T17:34:16.091Z,25.70
2022-08-18T17:36:25.344Z,25.80
2022-08-18T17:38:34.207Z,25.90
2022-08-18T17:40:43.625Z,25.80
2022-08-18T17:42:51.705Z,25.60
2022-08-18T17:44:59.124Z,25.50
2022-08-18T17:47:04.518Z,25.50
2022-08-18T17:49:13.122Z,25.40
2022-08-18T17:51:37.649Z,25.40
2022-08-18T17:53:47.370Z,25.50
2022-08-18T17:55:53.352Z,25.60
2022-08-18T17:58:02.572Z,25.70
2022-08-18T18:00:09.794Z,25.70
2022-08-18T18:02:19.045Z,25.70
2022-08-18T18:04:32.783Z,25.60
2022-08-18T18:06:40.963Z,25.60
2022-08-18T18:08:53.349Z,25.40
2022-08-18T18:11:11.794Z,25.40
2022-08-18T18:13:23.594Z,25.50
2022-08-18T18:15:33.322Z,25.60
2022-08-18T18:17:39.497Z,25.50
2022-08-18T18:19:43.216Z,25.50
2022-08-18T18:22:03.426Z,25.40
2022-08-18T18:24:15.614Z,25.30
2022-08-18T18:26:26.264Z,25.30
2022-08-18T18:28:31.929Z,25.30
2022-08-18T18:30:34.841Z,25.20
2022-08-18T18:32:59.271Z,25.20
2022-08-18T18:35:12.538Z,25.20
2022-08-18T18:37:29.205Z,25.20
2022-08-18T18:39:35.819Z,25.20
2022-08-18T18:41:40.922Z,25.10
2022-08-18T18:43:46.783Z,25.10
2022-08-18T18:46:17.904Z,25.00
2022-08-18T18:48:45.019Z,25.00
2022-08-18T18:50:55.976Z,25.00
2022-08-18T18:53:14.120Z,25.00
2022-08-18T18:55:20.525Z,24.80
2022-08-18T18:57:36.285Z,24.90
2022-08-18T18:59:51.244Z,24.90
2022-08-18T19:02:01.280Z,25.00
2022-08-18T19:04:08.796Z,25.00
2022-08-18T19:06:28.447Z,24.80
2022-08-18T19:08:41.999Z,24.70
2022-08-18T19:10:56.259Z,24.50
2022-08-18T19:13:03.463Z,24.70
2022-08-18T19:15:14.575Z,24.80
2022-08-18T19:17:23.250Z,24.80
2022-08-18T19:19:37.238Z,24.80
2022-08-18T19:22:03.799Z,24.70
2022-08-18T19:24:16.005Z,24.80
2022-08-18T19:26:26.969Z,24.80
2022-08-18T19:28:35.235Z,24.80
2022-08-18T19:31:02.953Z,24.70
2022-08-18T19:33:07.476Z,24.60
2022-08-18T19:35:16.164Z,24.50
2022-08-18T19:37:30.988Z,24.40
2022-08-18T19:39:43.003Z,24.50
2022-08-18T19:41:50.746Z,24.60
2022-08-18T19:44:04.385Z,24.60
2022-08-18T19:46:16.178Z,24.60
2022-08-18T19:48:26.391Z,24.70
2022-08-18T19:50:35.228Z,24.70
2022-08-18T19:52:55.950Z,24.70
2022-08-18T19:55:15.093Z,24.70
2022-08-18T19:57:37.665Z,24.60
2022-08-18T20:00:10.190Z,24.60
2022-08-18T20:02:29.479Z,24.50
2022-08-18T20:04:46.689Z,24.50
2022-08-18T20:07:05.797Z,24.50
2022-08-18T20:09:48.677Z,24.50
2022-08-18T20:12:09.805Z,24.40
2022-08-18T20:14:17.093Z,24.50
2022-08-18T20:16:33.156Z,24.40
2022-08-18T20:18:48.955Z,24.40
2022-08-18T20:21:22.847Z,24.40
2022-08-18T20:23:34.106Z,24.40
2022-08-18T20:25:44.008Z,24.50
2022-08-18T20:27:51.433Z,24.50
2022-08-18T20:30:17.467Z,24.50
2022-08-18T20:32:28.960Z,24.40
2022-08-18T20:34:33.622Z,24.30
2022-08-18T20:36:37.764Z,24.30
2022-08-18T20:38:43.222Z,24.40
2022-08-18T20:40:48.681Z,24.40
2022-08-18T20:43:06.813Z,24.40
2022-08-18T20:45:13.884Z,24.50
2022-08-18T20:47:40.155Z,24.30
2022-08-18T20:49:58.280Z,24.10
2022-08-18T20:52:11.693Z,24.20
2022-08-18T20:54:30.650Z,24.30
2022-08-18T20:56:43.958Z,24.00
2022-08-18T20:58:57.329Z,23.90
2022-08-18T21:01:01.572Z,23.90
2022-08-18T21:03:08.697Z,23.90
2022-08-18T21:05:27.465Z,23.80
2022-08-18T21:07:36.971Z,23.90
2022-08-18T21:09:40.272Z,23.80
2022-08-18T21:11:46.546Z,23.90
2022-08-18T21:13:53.031Z,23.80
2022-08-18T21:15:55.986Z,23.90
2022-08-18T21:18:01.063Z,24.00
2022-08-18T21:20:07.901Z,24.10
2022-08-18T21:22:12.438Z,24.00
2022-08-18T21:24:23.385Z,24.00
2022-08-18T21:26:27.739Z,24.10
2022-08-18T21:28:34.879Z,24.10
2022-08-18T21:30:39.633Z,24.10
2022-08-18T21:32:43.429Z,24.10
2022-08-18T21:34:46.378Z,24.10
2022-08-18T21:36:52.254Z,24.00
2022-08-18T21:38:58.529Z,23.90
2022-08-18T21:41:14.782Z,23.90
2022-08-18T21:43:35.572Z,24.10
2022-08-18T21:45:53.040Z,24.10
2022-08-18T21:48:05.536Z,24.20
2022-08-18T21:50:12.641Z,24.20
2022-08-18T21:52:24.162Z,24.20
2022-08-18T21:54:35.509Z,24.20
2022-08-18T21:56:40.224Z,24.20
2022-08-18T21:58:45.388Z,24.10
2022-08-18T22:01:11.603Z,24.10
2022-08-18T22:03:21.565Z,24.20
2022-08-18T22:05:58.102Z,24.10
2022-08-18T22:07:54.182Z,24.20
2022-08-18T22:10:19.114Z,24.30
2022-08-18T22:12:45.121Z,24.30
2022-08-18T22:14:54.357Z,24.20
2022-08-18T22:17:34.987Z,24.10
2022-08-18T22:19:37.767Z,24.10
2022-08-18T22:21:46.428Z,24.30
2022-08-18T22:24:06.645Z,24.10
2022-08-18T22:26:12.399Z,24.10
2022-08-18T22:28:20.728Z,24.20
2022-08-18T22:30:23.466Z,24.10
2022-08-18T22:32:26.239Z,24.00
2022-08-18T22:34:34.320Z,23.90
2022-08-18T22:36:39.427Z,23.90
2022-08-18T22:38:42.587Z,23.80
2022-08-18T22:40:45.809Z,23.70
2022-08-18T22:42:48.552Z,23.90
2022-08-18T22:44:51.772Z,24.10
2022-08-18T22:46:54.510Z,24.10
2022-08-18T22:48:58.329Z,24.30
2022-08-18T22:51:02.454Z,24.30
2022-08-18T22:53:05.486Z,24.30
2022-08-18T22:55:11.098Z,24.20
2022-08-18T22:57:14.665Z,24.00
2022-08-18T22:59:20.421Z,23.90
2022-08-18T23:01:24.159Z,23.60
2022-08-18T23:03:27.604Z,23.50
2022-08-18T23:05:32.482Z,23.30
2022-08-18T23:07:36.919Z,23.10
2022-08-18T23:09:40.165Z,23.00
2022-08-18T23:11:41.982Z,23.00
2022-08-18T23:13:44.753Z,22.90
2022-08-18T23:15:48.248Z,23.00
2022-08-18T23:17:50.990Z,23.20
2022-08-18T23:19:53.720Z,23.40
2022-08-18T23:21:56.933Z,23.60
2022-08-18T23:24:00.982Z,23.70
2022-08-18T23:26:03.787Z,23.80
2022-08-18T23:28:10.562Z,23.90
2022-08-18T23:30:13.709Z,23.90
2022-08-18T23:32:16.860Z,23.90
2022-08-18T23:34:22.997Z,24.00
2022-08-18T23:36:25.725Z,24.10
2022-08-18T23:38:31.747Z,24.20
2022-08-18T23:40:37.181Z,24.10
2022-08-18T23:42:40.125Z,24.10
2022-08-18T23:44:43.359Z,24.10
2022-08-18T23:46:46.175Z,24.10
2022-08-18T23:48:50.650Z,24.10
2022-08-18T23:50:53.424Z,24.00
2022-08-18T23:52:57.997Z,24.00
2022-08-18T23:55:04.302Z,24.00
2022-08-18T23:57:08.487Z,23.90
2022-08-18T23:59:11.703Z,23.80
